Página principal
METAR-TAF:

METAR-TAF

Aeroportos :

Aeroporto Internacional de Atenas

Atenas, Grécia

latitude: 37-56N, longitude: 023-56E, altura: 94 m

Observação actual do tempo

O boletim foi feito há 34 minutos, às 00:50 UTC
Vento 17 kt de nor-nordeste
Temperatura 13°C
Humidade 62%
Pressão 1024 hPa
Visibilidade 10 km ou mais
Poucas nuvensa uma altura de 3000 ft

METAR: LGAV 140050Z 02017KT 9999 FEW030 13/06 Q1024 NOSIG

Hora: 03:24 (01:24 UTC)

Previsão

O boletim foi feito há 2 horas e 24 minutos, às 23:00 UTC
Previsão válida de 14 às 00 UTC a 14 às 24 UTC
Vento 20 kt de nor-nordeste
Visibilidade 10 km ou mais
Nuvens dispersasa uma altura de 3000 ft
Temporariamente
de 14 às 00 UTC a 14 às 06 UTC
Vento 20 kt de nor-nordeste com rajadas de 30 kt
Nuvens fragmentadasa uma altura de 3000 ft

TAF: LGAV 132300Z 1400/1424 02020KT 9999 SCT030 TEMPO 1400/1406 02020G30KT BKN030

Observações e previsões do tempo de mais de 4000 aeroportos (mensagens METAR e TAF).

As estações disponíveis são os pontos amarelos e vermelhos sobre o mapa.

Mova o rato sobre o mapa para ver o nome da estação.

Depois clique no ponto para visualizar as observações e previsões meteorológicas.

Para alterar o mapa : clique nos botões verdes com uma cruz preta para aumentar o zoom; no botão verde com uma pitada de zoom; ou nas setas verdes para mapas adjacentes.


METAR-TAF: